createdAt,value
2015-05-14T00:00:14.447Z,10
2015-05-14T00:00:33.025Z,10
2015-05-14T00:00:51.462Z,10
2015-05-14T00:01:09.900Z,10
2015-05-14T00:01:28.386Z,10
2015-05-14T00:01:47.261Z,10
2015-05-14T00:02:05.761Z,10
2015-05-14T00:02:24.544Z,9
2015-05-14T00:02:43.201Z,10
2015-05-14T00:03:01.779Z,9
2015-05-14T00:03:20.485Z,10
2015-05-14T00:03:38.985Z,9
2015-05-14T00:03:57.579Z,9
2015-05-14T00:04:16.173Z,9
2015-05-14T00:04:34.642Z,9
2015-05-14T00:04:53.345Z,9
2015-05-14T00:05:11.908Z,9
2015-05-14T00:05:30.286Z,9
2015-05-14T00:05:48.676Z,9
2015-05-14T00:06:07.114Z,9
2015-05-14T00:06:25.601Z,9
2015-05-14T00:06:44.007Z,7
2015-05-14T00:07:02.742Z,8
2015-05-14T00:07:21.134Z,8
2015-05-14T00:07:39.572Z,9
2015-05-14T00:07:57.994Z,10
2015-05-14T00:08:16.213Z,10
2015-05-14T00:08:34.621Z,10
2015-05-14T00:08:53.136Z,10
2015-05-14T00:09:11.543Z,10
2015-05-14T00:09:30.124Z,10
2015-05-14T00:09:47.921Z,10
2015-05-14T00:10:06.530Z,10
2015-05-14T00:10:25.329Z,10
2015-05-14T00:10:43.938Z,9
2015-05-14T00:11:02.423Z,9
2015-05-14T00:11:20.860Z,9
2015-05-14T00:11:39.254Z,9
2015-05-14T00:11:57.848Z,9
2015-05-14T00:12:16.441Z,9
2015-05-14T00:12:34.974Z,9
2015-05-14T00:12:53.458Z,9
2015-05-14T00:13:12.239Z,9
2015-05-14T00:13:30.742Z,9
2015-05-14T00:13:49.273Z,144
2015-05-14T00:14:08.070Z,144
2015-05-14T00:14:26.461Z,144
2015-05-14T00:14:44.900Z,144
2015-05-14T00:15:03.650Z,144
2015-05-14T00:15:22.166Z,144
2015-05-14T00:15:40.918Z,144
2015-05-14T00:15:59.340Z,144
2015-05-14T00:16:17.918Z,144
2015-05-14T00:16:36.668Z,144
2015-05-14T00:16:55.250Z,144
2015-05-14T00:17:13.813Z,144
2015-05-14T00:17:32.485Z,144
2015-05-14T00:17:51.095Z,144
2015-05-14T00:18:09.532Z,144
2015-05-14T00:18:28.017Z,144
2015-05-14T00:18:46.364Z,144
2015-05-14T00:19:04.926Z,144
2015-05-14T00:19:23.489Z,144
2015-05-14T00:19:41.910Z,144
2015-05-14T00:20:00.476Z,144
2015-05-14T00:20:19.117Z,144
2015-05-14T00:20:37.617Z,144
2015-05-14T00:20:56.211Z,144
2015-05-14T00:21:14.727Z,144
2015-05-14T00:21:33.352Z,144
2015-05-14T00:21:51.824Z,144
2015-05-14T00:22:10.574Z,144
2015-05-14T00:22:29.183Z,144
2015-05-14T00:22:47.636Z,144
2015-05-14T00:23:06.217Z,144
2015-05-14T00:23:24.608Z,144
2015-05-14T00:23:43.420Z,144
2015-05-14T00:24:01.906Z,144
2015-05-14T00:24:20.781Z,145
2015-05-14T00:24:39.453Z,144
2015-05-14T00:24:58.190Z,145
2015-05-14T00:25:16.815Z,145
2015-05-14T00:25:35.378Z,144
2015-05-14T00:25:53.911Z,144
2015-05-14T00:26:12.520Z,145
2015-05-14T00:26:31.020Z,145
2015-05-14T00:26:49.661Z,144
2015-05-14T00:27:08.054Z,144
2015-05-14T00:27:26.554Z,144
2015-05-14T00:27:45.133Z,145
2015-05-14T00:28:03.135Z,144
2015-05-14T00:28:21.713Z,144
2015-05-14T00:28:40.541Z,145
2015-05-14T00:28:58.996Z,145
2015-05-14T00:29:17.808Z,145
2015-05-14T00:29:36.246Z,146
2015-05-14T00:29:54.496Z,148
2015-05-14T00:30:13.076Z,145
2015-05-14T00:30:31.560Z,145
2015-05-14T00:30:50.279Z,145
2015-05-14T00:31:08.798Z,145
2015-05-14T00:31:27.173Z,144
2015-05-14T00:31:45.829Z,144
2015-05-14T00:32:04.223Z,145
2015-05-14T00:32:22.832Z,145
2015-05-14T00:32:41.379Z,145
2015-05-14T00:32:59.848Z,144
2015-05-14T00:33:18.647Z,145
2015-05-14T00:33:37.350Z,145
2015-05-14T00:33:55.881Z,145
2015-05-14T00:34:14.492Z,145
2015-05-14T00:34:33.008Z,145
2015-05-14T00:34:51.820Z,144
2015-05-14T00:35:10.386Z,144
2015-05-14T00:35:28.792Z,144
2015-05-14T00:35:47.652Z,145
2015-05-14T00:36:06.261Z,145
2015-05-14T00:36:24.763Z,145
2015-05-14T00:36:43.263Z,145
2015-05-14T00:37:01.810Z,144
2015-05-14T00:37:20.344Z,148
2015-05-14T00:37:39.188Z,148
2015-05-14T00:37:57.782Z,148
2015-05-14T00:38:16.439Z,148
2015-05-14T00:38:34.829Z,148
2015-05-14T00:38:53.283Z,148
2015-05-14T00:39:11.173Z,148
2015-05-14T00:39:29.957Z,148
2015-05-14T00:39:49.036Z,149
2015-05-14T00:40:07.551Z,149
2015-05-14T00:40:26.022Z,149
2015-05-14T00:40:44.506Z,145
2015-05-14T00:41:02.991Z,145
2015-05-14T00:41:21.494Z,145
2015-05-14T00:41:40.134Z,145
2015-05-14T00:41:58.822Z,145
2015-05-14T00:42:17.574Z,145
2015-05-14T00:42:36.043Z,148
2015-05-14T00:42:54.918Z,144
2015-05-14T00:43:13.355Z,147
2015-05-14T00:43:32.154Z,144
2015-05-14T00:43:53.560Z,144
2015-05-14T00:44:12.170Z,144
2015-05-14T00:44:30.657Z,144
2015-05-14T00:44:49.376Z,144
2015-05-14T00:45:07.891Z,144
2015-05-14T00:45:26.456Z,144
2015-05-14T00:45:44.909Z,145
2015-05-14T00:46:03.300Z,145
2015-05-14T00:46:21.862Z,144
2015-05-14T00:46:40.318Z,145
2015-05-14T00:46:58.709Z,145
2015-05-14T00:47:17.162Z,145
2015-05-14T00:47:35.571Z,145
2015-05-14T00:47:54.368Z,145
2015-05-14T00:48:12.759Z,144
2015-05-14T00:48:31.399Z,144
2015-05-14T00:48:49.792Z,144
2015-05-14T00:49:08.339Z,145
2015-05-14T00:49:26.933Z,145
2015-05-14T00:49:45.810Z,145
2015-05-14T00:50:04.263Z,145
2015-05-14T00:50:23.060Z,144
2015-05-14T00:50:41.624Z,144
2015-05-14T00:51:00.015Z,146
2015-05-14T00:51:18.702Z,145
2015-05-14T00:51:37.343Z,146
2015-05-14T00:51:56.080Z,145
2015-05-14T00:52:13.893Z,146
2015-05-14T00:52:32.283Z,145
2015-05-14T00:52:50.832Z,145
2015-05-14T00:53:09.223Z,145
2015-05-14T00:53:27.707Z,145
2015-05-14T00:53:46.179Z,145
2015-05-14T00:54:04.804Z,145
2015-05-14T00:54:23.210Z,146
2015-05-14T00:54:41.804Z,146
2015-05-14T00:55:00.509Z,145
2015-05-14T00:55:19.009Z,146
2015-05-14T00:55:37.447Z,146
2015-05-14T00:55:56.074Z,144
2015-05-14T00:56:14.542Z,144
2015-05-14T00:56:33.214Z,146
2015-05-14T00:56:51.608Z,146
2015-05-14T00:57:10.170Z,144
2015-05-14T00:57:28.592Z,144
2015-05-14T00:57:47.188Z,144
2015-05-14T00:58:05.813Z,144
2015-05-14T00:58:24.250Z,144
2015-05-14T00:58:42.907Z,146
2015-05-14T00:59:01.503Z,146
2015-05-14T00:59:19.894Z,146
2015-05-14T00:59:38.644Z,146
2015-05-14T00:59:57.161Z,145
2015-05-14T01:00:14.942Z,145
2015-05-14T01:00:33.458Z,145
2015-05-14T01:00:52.273Z,145
2015-05-14T01:01:10.664Z,145
2015-05-14T01:01:29.148Z,145
2015-05-14T01:01:46.929Z,145
2015-05-14T01:02:05.400Z,145
2015-05-14T01:02:23.806Z,145
2015-05-14T01:02:42.259Z,146
2015-05-14T01:03:00.669Z,145
2015-05-14T01:03:19.091Z,145
2015-05-14T01:03:37.481Z,145
2015-05-14T01:03:56.233Z,145
2015-05-14T01:04:14.796Z,145
2015-05-14T01:04:33.468Z,145
2015-05-14T01:04:51.952Z,145
2015-05-14T01:05:10.391Z,145
2015-05-14T01:05:28.798Z,145
2015-05-14T01:05:47.298Z,145
2015-05-14T01:06:05.894Z,145
2015-05-14T01:06:24.410Z,145
2015-05-14T01:06:42.879Z,145
2015-05-14T01:07:01.412Z,146
2015-05-14T01:07:19.803Z,145
2015-05-14T01:07:38.225Z,145
2015-05-14T01:07:57.131Z,146
2015-05-14T01:08:15.603Z,150
2015-05-14T01:08:34.212Z,152
2015-05-14T01:08:52.681Z,158
2015-05-14T01:09:11.073Z,171
2015-05-14T01:09:29.464Z,174
2015-05-14T01:09:47.995Z,173
2015-05-14T01:10:06.495Z,173
2015-05-14T01:10:25.153Z,175
2015-05-14T01:10:43.669Z,175
2015-05-14T01:11:02.060Z,176
2015-05-14T01:11:20.547Z,177
2015-05-14T01:11:38.938Z,175
2015-05-14T01:11:57.469Z,180
2015-05-14T01:12:16.031Z,182
2015-05-14T01:12:34.503Z,177
2015-05-14T01:12:53.034Z,181
2015-05-14T01:13:11.503Z,182
2015-05-14T01:13:30.099Z,183
2015-05-14T01:13:48.552Z,183
2015-05-14T01:14:06.943Z,181
2015-05-14T01:14:25.460Z,180
2015-05-14T01:14:44.007Z,181
2015-05-14T01:15:02.726Z,178
2015-05-14T01:15:21.367Z,178
2015-05-14T01:15:39.916Z,172
2015-05-14T01:15:58.510Z,178
2015-05-14T01:16:17.151Z,174
2015-05-14T01:16:35.590Z,170
2015-05-14T01:16:54.309Z,162
2015-05-14T01:17:12.731Z,159
2015-05-14T01:17:31.264Z,151
2015-05-14T01:17:49.655Z,162
2015-05-14T01:18:08.280Z,159
2015-05-14T01:18:26.670Z,157
2015-05-14T01:18:45.344Z,155
2015-05-14T01:19:03.829Z,151
2015-05-14T01:19:22.422Z,159
2015-05-14T01:19:40.816Z,148
2015-05-14T01:19:59.566Z,144
2015-05-14T01:20:18.425Z,144
2015-05-14T01:20:37.052Z,144
2015-05-14T01:20:55.802Z,144
2015-05-14T01:21:14.334Z,144
2015-05-14T01:21:32.821Z,144
2015-05-14T01:21:51.352Z,145
2015-05-14T01:22:09.915Z,145
2015-05-14T01:22:28.352Z,145
2015-05-14T01:22:46.964Z,145
2015-05-14T01:23:05.526Z,144
2015-05-14T01:23:23.979Z,150
2015-05-14T01:23:42.669Z,144
2015-05-14T01:24:01.184Z,144
2015-05-14T01:24:19.606Z,144
2015-05-14T01:24:38.609Z,144
2015-05-14T01:24:57.000Z,144
2015-05-14T01:25:15.641Z,144
2015-05-14T01:25:33.922Z,144
2015-05-14T01:25:52.330Z,144
2015-05-14T01:26:10.736Z,144
2015-05-14T01:26:29.205Z,144
2015-05-14T01:26:47.927Z,144
2015-05-14T01:27:06.489Z,144
2015-05-14T01:27:24.911Z,144
2015-05-14T01:27:43.475Z,144
2015-05-14T01:28:01.928Z,144
2015-05-14T01:28:20.600Z,144
2015-05-14T01:28:39.084Z,145
2015-05-14T01:29:17.166Z,143
2015-05-14T01:29:35.557Z,144
2015-05-14T01:29:54.059Z,144
2015-05-14T01:30:12.559Z,144
2015-05-14T01:30:31.121Z,144
2015-05-14T01:30:49.889Z,144
2015-05-14T01:31:08.295Z,144
2015-05-14T01:31:26.780Z,144
2015-05-14T01:31:45.233Z,145
2015-05-14T01:32:03.845Z,145
2015-05-14T01:32:22.283Z,145
2015-05-14T01:32:41.001Z,145
2015-05-14T01:32:59.847Z,145
2015-05-14T01:33:18.316Z,145
2015-05-14T01:33:36.941Z,145
2015-05-14T01:33:55.631Z,145
2015-05-14T01:34:14.131Z,145
2015-05-14T01:34:32.913Z,145
2015-05-14T01:34:51.413Z,145
2015-05-14T01:35:10.117Z,145
2015-05-14T01:35:28.570Z,145
2015-05-14T01:35:47.414Z,145
2015-05-14T01:36:05.823Z,145
2015-05-14T01:36:24.260Z,145
2015-05-14T01:36:42.667Z,145
2015-05-14T01:37:01.481Z,145
2015-05-14T01:37:19.872Z,145
2015-05-14T01:37:38.294Z,145
2015-05-14T01:37:57.093Z,144
2015-05-14T01:38:15.734Z,145
2015-05-14T01:38:34.203Z,145
2015-05-14T01:38:52.625Z,145
2015-05-14T01:39:11.127Z,145
2015-05-14T01:39:29.533Z,145
2015-05-14T01:39:48.330Z,145
2015-05-14T01:40:06.738Z,145
2015-05-14T01:40:25.160Z,145
2015-05-14T01:40:43.707Z,145
2015-05-14T01:41:02.319Z,145
2015-05-14T01:41:20.772Z,145
2015-05-14T01:41:39.179Z,145
2015-05-14T01:41:57.694Z,145
2015-05-14T01:42:16.337Z,145
2015-05-14T01:42:34.837Z,145
2015-05-14T01:42:53.306Z,145
2015-05-14T01:43:11.809Z,145
2015-05-14T01:43:30.590Z,145
2015-05-14T01:43:49.418Z,145
2015-05-14T01:44:08.186Z,145
2015-05-14T01:44:26.717Z,145
2015-05-14T01:44:45.326Z,145
2015-05-14T01:45:03.813Z,145
2015-05-14T01:45:22.609Z,145
2015-05-14T01:45:41.031Z,144
2015-05-14T01:45:59.500Z,144
2015-05-14T01:46:18.362Z,144
2015-05-14T01:46:36.956Z,144
2015-05-14T01:46:55.487Z,144
2015-05-14T01:47:14.083Z,150
2015-05-14T01:47:31.943Z,144
2015-05-14T01:47:50.427Z,144
2015-05-14T01:48:08.458Z,144
2015-05-14T01:48:26.851Z,145
2015-05-14T01:48:45.382Z,150
2015-05-14T01:49:04.007Z,145
2015-05-14T01:49:22.448Z,145
2015-05-14T01:49:40.885Z,145
2015-05-14T01:49:59.369Z,145
2015-05-14T01:50:18.168Z,145
2015-05-14T01:50:36.856Z,145
2015-05-14T01:50:55.246Z,145
2015-05-14T01:51:14.059Z,145
2015-05-14T01:51:32.452Z,145
2015-05-14T01:51:50.858Z,145
2015-05-14T01:52:09.248Z,145
2015-05-14T01:52:27.688Z,150
2015-05-14T01:52:46.266Z,147
2015-05-14T01:53:05.094Z,152
2015-05-14T01:53:23.738Z,145
2015-05-14T01:53:42.519Z,150
2015-05-14T01:54:01.207Z,152
2015-05-14T01:54:19.662Z,145
2015-05-14T01:54:38.365Z,145
2015-05-14T01:54:56.849Z,150
2015-05-14T01:55:15.474Z,145
2015-05-14T01:55:33.992Z,145
2015-05-14T01:55:52.601Z,145
2015-05-14T01:56:11.070Z,145
2015-05-14T01:56:29.620Z,145
2015-05-14T01:56:48.010Z,152
2015-05-14T01:57:06.573Z,151
2015-05-14T01:57:24.998Z,145
2015-05-14T01:57:43.560Z,151
2015-05-14T01:58:01.967Z,150
2015-05-14T01:58:20.529Z,151
2015-05-14T01:58:39.047Z,151
2015-05-14T01:58:57.437Z,151
2015-05-14T01:59:16.140Z,151
2015-05-14T01:59:34.549Z,144
2015-05-14T01:59:53.049Z,144
2015-05-14T02:00:11.611Z,144
2015-05-14T02:00:30.144Z,144
2015-05-14T02:00:48.863Z,144
2015-05-14T02:01:07.363Z,145
2015-05-14T02:01:25.941Z,144
2015-05-14T02:01:44.475Z,144
2015-05-14T02:02:03.006Z,144
2015-05-14T02:02:21.443Z,144
2015-05-14T02:02:40.009Z,144
2015-05-14T02:02:58.431Z,144
2015-05-14T02:03:17.040Z,144
2015-05-14T02:03:35.667Z,144
2015-05-14T02:03:54.245Z,144
2015-05-14T02:04:12.901Z,144
2015-05-14T02:04:31.495Z,144
2015-05-14T02:04:50.248Z,144
2015-05-14T02:05:08.967Z,144
2015-05-14T02:05:27.498Z,144
2015-05-14T02:05:45.907Z,144
2015-05-14T02:06:04.329Z,144
2015-05-14T02:06:22.876Z,144
2015-05-14T02:06:41.347Z,144
2015-05-14T02:07:00.128Z,144
2015-05-14T02:07:18.941Z,144
2015-05-14T02:07:37.443Z,144
2015-05-14T02:07:56.255Z,144
2015-05-14T02:08:14.724Z,144
2015-05-14T02:08:33.271Z,144
2015-05-14T02:08:51.835Z,144
2015-05-14T02:09:10.476Z,144
2015-05-14T02:09:29.210Z,144
2015-05-14T02:09:47.995Z,144
2015-05-14T02:10:06.776Z,144
2015-05-14T02:10:25.432Z,144
2015-05-14T02:10:44.012Z,145
2015-05-14T02:11:02.481Z,145
2015-05-14T02:11:20.918Z,145
2015-05-14T02:11:39.387Z,145
2015-05-14T02:11:58.030Z,145
2015-05-14T02:12:16.389Z,145
2015-05-14T02:12:34.780Z,145
2015-05-14T02:12:52.579Z,145
2015-05-14T02:13:10.876Z,145
2015-05-14T02:13:29.204Z,145
2015-05-14T02:14:15.050Z,144
2015-05-14T02:14:33.644Z,145
2015-05-14T02:14:52.382Z,145
2015-05-14T02:15:10.678Z,144
2015-05-14T02:15:29.069Z,144
2015-05-14T02:15:47.149Z,144
2015-05-14T02:16:05.540Z,144
2015-05-14T02:16:23.915Z,145
2015-05-14T02:16:42.493Z,145
2015-05-14T02:17:00.995Z,145
2015-05-14T02:17:19.870Z,145
2015-05-14T02:17:38.323Z,145
2015-05-14T02:17:56.794Z,145
2015-05-14T02:18:15.403Z,145
2015-05-14T02:18:33.809Z,145
2015-05-14T02:18:52.434Z,145
2015-05-14T02:19:10.906Z,145
2015-05-14T02:19:29.500Z,145
2015-05-14T02:19:47.906Z,145
2015-05-14T02:20:06.564Z,145
2015-05-14T02:20:25.205Z,145
2015-05-14T02:20:43.627Z,145
2015-05-14T02:21:02.146Z,145
2015-05-14T02:21:20.817Z,145
2015-05-14T02:21:39.302Z,145
2015-05-14T02:21:57.849Z,145
2015-05-14T02:22:16.366Z,145
2015-05-14T02:22:34.835Z,145
2015-05-14T02:22:53.507Z,145
2015-05-14T02:23:12.104Z,145
2015-05-14T02:23:30.494Z,145
2015-05-14T02:23:48.932Z,145
2015-05-14T02:24:07.449Z,145
2015-05-14T02:24:25.996Z,145
2015-05-14T02:24:44.637Z,145
2015-05-14T02:25:03.278Z,145
2015-05-14T02:25:21.748Z,145
2015-05-14T02:25:40.248Z,145
2015-05-14T02:25:58.248Z,145
2015-05-14T02:26:16.719Z,145
2015-05-14T02:26:35.172Z,145
2015-05-14T02:26:53.578Z,145
2015-05-14T02:27:12.143Z,145
2015-05-14T02:27:30.690Z,145
2015-05-14T02:27:49.284Z,145
2015-05-14T02:28:07.802Z,145
2015-05-14T02:28:26.333Z,145
2015-05-14T02:28:44.943Z,145
2015-05-14T02:29:03.474Z,145
2015-05-14T02:29:22.226Z,145
2015-05-14T02:29:40.820Z,145
2015-05-14T02:29:59.445Z,145
2015-05-14T02:30:17.869Z,145
2015-05-14T02:30:36.478Z,145
2015-05-14T02:30:54.994Z,145
2015-05-14T02:31:13.544Z,145
2015-05-14T02:31:31.965Z,144
2015-05-14T02:31:50.309Z,144
2015-05-14T02:32:08.934Z,144
2015-05-14T02:32:27.297Z,144
2015-05-14T02:32:45.687Z,144
2015-05-14T02:33:04.093Z,144
2015-05-14T02:33:22.549Z,144
2015-05-14T02:33:41.142Z,144
2015-05-14T02:33:59.517Z,144
2015-05-14T02:34:18.097Z,144
2015-05-14T02:34:36.488Z,144
2015-05-14T02:34:54.988Z,144
2015-05-14T02:35:13.394Z,144
2015-05-14T02:35:31.740Z,144
2015-05-14T02:35:50.209Z,144
2015-05-14T02:36:08.662Z,144
2015-05-14T02:36:27.056Z,144
2015-05-14T02:36:45.493Z,144
2015-05-14T02:37:03.915Z,144
2015-05-14T02:37:22.215Z,144
2015-05-14T02:37:40.605Z,144
2015-05-14T02:37:58.980Z,144
2015-05-14T02:38:17.449Z,144
2015-05-14T02:38:35.967Z,144
2015-05-14T02:38:54.357Z,144
2015-05-14T02:39:13.092Z,144
2015-05-14T02:39:31.484Z,144
2015-05-14T02:39:49.859Z,144
2015-05-14T02:40:08.297Z,144
2015-05-14T02:40:26.125Z,144
2015-05-14T02:40:44.566Z,144
2015-05-14T02:41:02.894Z,144
2015-05-14T02:41:21.362Z,144
2015-05-14T02:41:39.975Z,144
2015-05-14T02:41:58.537Z,144
2015-05-14T02:42:17.037Z,144
2015-05-14T02:42:35.584Z,144
2015-05-14T02:42:53.930Z,144
2015-05-14T02:43:12.414Z,144
2015-05-14T02:43:30.742Z,144
2015-05-14T02:43:49.151Z,144
2015-05-14T02:44:07.619Z,144
2015-05-14T02:44:26.354Z,141
2015-05-14T02:44:44.871Z,141
2015-05-14T02:45:03.512Z,141
2015-05-14T02:45:21.934Z,141
2015-05-14T02:45:40.356Z,141
2015-05-14T02:45:58.953Z,141
2015-05-14T02:46:17.453Z,141
2015-05-14T02:46:35.843Z,141
2015-05-14T02:46:54.564Z,141
2015-05-14T02:47:13.033Z,141
2015-05-14T02:47:31.439Z,141
2015-05-14T02:47:49.941Z,141
2015-05-14T02:48:08.457Z,141
2015-05-14T02:48:26.847Z,3
2015-05-14T02:48:45.457Z,3
2015-05-14T02:49:03.944Z,3
2015-05-14T02:49:22.366Z,3
2015-05-14T02:49:40.788Z,139
2015-05-14T02:49:59.227Z,139
2015-05-14T02:50:17.618Z,139
2015-05-14T02:50:36.040Z,139
2015-05-14T02:50:54.620Z,139
2015-05-14T02:51:13.026Z,139
2015-05-14T02:51:31.635Z,139
2015-05-14T02:51:50.229Z,139
2015-05-14T02:52:08.638Z,139
2015-05-14T02:52:27.060Z,139
2015-05-14T02:52:45.779Z,139
2015-05-14T02:53:04.203Z,139
2015-05-14T02:53:22.828Z,139
2015-05-14T02:53:41.453Z,139
2015-05-14T02:54:00.127Z,141
2015-05-14T02:54:18.611Z,139
2015-05-14T02:54:37.127Z,139
2015-05-14T02:54:55.536Z,139
2015-05-14T02:55:13.864Z,139
2015-05-14T02:55:32.599Z,138
2015-05-14T02:55:51.083Z,138
2015-05-14T02:56:09.664Z,138
2015-05-14T02:56:28.336Z,138
2015-05-14T02:56:46.742Z,138
2015-05-14T02:57:05.353Z,138
2015-05-14T02:57:23.837Z,142
2015-05-14T02:57:42.259Z,142
2015-05-14T02:58:00.793Z,5
2015-05-14T02:58:19.418Z,5
2015-05-14T02:58:38.106Z,5
2015-05-14T02:58:56.824Z,5
2015-05-14T02:59:15.467Z,6
2015-05-14T02:59:33.858Z,141
2015-05-14T02:59:52.358Z,141
2015-05-14T03:00:10.736Z,141
2015-05-14T03:00:28.845Z,141
2015-05-14T03:00:47.282Z,142
2015-05-14T03:01:05.831Z,142
2015-05-14T03:01:24.222Z,142
2015-05-14T03:01:43.003Z,143
2015-05-14T03:02:01.659Z,142
2015-05-14T03:02:20.397Z,10
2015-05-14T03:02:39.022Z,11
2015-05-14T03:02:57.537Z,12
2015-05-14T03:03:16.008Z,14
2015-05-14T03:03:34.618Z,15
2015-05-14T03:03:53.039Z,17
2015-05-14T03:04:11.430Z,18
2015-05-14T03:04:29.901Z,20
2015-05-14T03:04:48.432Z,22
2015-05-14T03:05:06.979Z,24
2015-05-14T03:05:25.435Z,25
2015-05-14T03:05:43.966Z,27
2015-05-14T03:06:02.623Z,29
2015-05-14T03:06:21.515Z,31
2015-05-14T03:06:40.031Z,32
2015-05-14T03:06:58.562Z,33
2015-05-14T03:07:17.046Z,34
2015-05-14T03:07:35.487Z,35
2015-05-14T03:07:54.299Z,35
2015-05-14T03:08:12.753Z,36
2015-05-14T03:08:31.519Z,36
2015-05-14T03:08:50.144Z,37
2015-05-14T03:09:08.675Z,38
2015-05-14T03:09:27.289Z,40
2015-05-14T03:09:45.679Z,41
2015-05-14T03:10:04.179Z,43
2015-05-14T03:10:22.617Z,45
2015-05-14T03:10:41.166Z,47
2015-05-14T03:10:59.666Z,49
2015-05-14T03:11:18.385Z,51
2015-05-14T03:11:36.980Z,54
2015-05-14T03:11:55.652Z,57
2015-05-14T03:12:14.262Z,61
2015-05-14T03:12:32.748Z,64
2015-05-14T03:12:51.185Z,67
2015-05-14T03:13:09.592Z,69
2015-05-14T03:13:28.157Z,69
2015-05-14T03:13:46.548Z,68
2015-05-14T03:14:05.048Z,68
2015-05-14T03:14:23.626Z,67
2015-05-14T03:14:42.081Z,64
2015-05-14T03:15:00.800Z,62
2015-05-14T03:15:19.284Z,63
2015-05-14T03:15:37.692Z,64
2015-05-14T03:15:56.474Z,64
2015-05-14T03:16:14.896Z,65
2015-05-14T03:16:33.414Z,65
2015-05-14T03:16:52.102Z,66
2015-05-14T03:17:10.555Z,66
2015-05-14T03:17:28.789Z,68
2015-05-14T03:17:47.432Z,70
2015-05-14T03:18:06.041Z,72
2015-05-14T03:18:24.541Z,74
2015-05-14T03:18:43.310Z,77
2015-05-14T03:19:01.841Z,79
2015-05-14T03:19:20.419Z,81
2015-05-14T03:19:39.218Z,82
2015-05-14T03:19:57.765Z,82
2015-05-14T03:20:16.202Z,84
2015-05-14T03:20:34.859Z,85
2015-05-14T03:20:53.471Z,87
2015-05-14T03:21:11.862Z,90
2015-05-14T03:21:30.487Z,94
2015-05-14T03:21:49.082Z,98
2015-05-14T03:22:07.504Z,102
2015-05-14T03:22:26.192Z,109
2015-05-14T03:22:44.723Z,117
2015-05-14T03:23:03.209Z,127
2015-05-14T03:23:21.834Z,139
2015-05-14T03:23:40.350Z,153
2015-05-14T03:23:59.072Z,170
2015-05-14T03:24:17.478Z,188
2015-05-14T03:24:36.072Z,207
2015-05-14T03:24:54.558Z,225
2015-05-14T03:25:13.011Z,247
2015-05-14T03:25:31.496Z,268
2015-05-14T03:25:50.105Z,286
2015-05-14T03:26:08.935Z,303
2015-05-14T03:26:27.529Z,316
2015-05-14T03:26:46.138Z,328
2015-05-14T03:27:04.673Z,335
2015-05-14T03:27:23.126Z,341
2015-05-14T03:27:41.563Z,347
2015-05-14T03:28:00.018Z,353
2015-05-14T03:28:18.471Z,359
2015-05-14T03:28:36.940Z,366
2015-05-14T03:28:55.534Z,373
2015-05-14T03:29:13.928Z,378
2015-05-14T03:29:32.412Z,380
2015-05-14T03:29:50.959Z,381
2015-05-14T03:30:09.538Z,382
2015-05-14T03:30:27.929Z,384
2015-05-14T03:30:46.382Z,388
2015-05-14T03:31:04.807Z,390
2015-05-14T03:31:23.494Z,390
2015-05-14T03:31:41.885Z,385
2015-05-14T03:32:00.387Z,378
2015-05-14T03:32:18.777Z,370
2015-05-14T03:32:37.449Z,365
2015-05-14T03:32:55.840Z,364
2015-05-14T03:33:14.265Z,368
2015-05-14T03:33:32.765Z,376
2015-05-14T03:33:51.515Z,384
2015-05-14T03:34:09.907Z,395
2015-05-14T03:34:28.407Z,407
2015-05-14T03:34:46.923Z,417
2015-05-14T03:35:05.316Z,427
2015-05-14T03:35:23.706Z,435
2015-05-14T03:35:42.144Z,443
2015-05-14T03:36:00.534Z,451
2015-05-14T03:36:19.100Z,460
2015-05-14T03:36:37.522Z,470
2015-05-14T03:36:56.053Z,478
2015-05-14T03:37:14.539Z,486
2015-05-14T03:37:33.117Z,495
2015-05-14T03:37:51.727Z,503
2015-05-14T03:38:10.307Z,510
2015-05-14T03:38:28.729Z,517
2015-05-14T03:38:47.307Z,525
2015-05-14T03:39:05.791Z,532
2015-05-14T03:39:24.216Z,541
2015-05-14T03:39:42.982Z,550
2015-05-14T03:40:01.357Z,560
2015-05-14T03:40:19.937Z,571
2015-05-14T03:40:38.453Z,582
2015-05-14T03:40:57.046Z,594
2015-05-14T03:41:15.642Z,607
2015-05-14T03:41:34.330Z,620
2015-05-14T03:41:52.736Z,631
2015-05-14T03:42:11.408Z,639
2015-05-14T03:42:29.926Z,645
2015-05-14T03:42:48.567Z,649
2015-05-14T03:43:07.145Z,653
2015-05-14T03:43:25.553Z,657
2015-05-14T03:43:44.225Z,662
2015-05-14T03:44:02.803Z,666
2015-05-14T03:44:21.416Z,670
2015-05-14T03:44:39.853Z,675
2015-05-14T03:44:58.478Z,681
2015-05-14T03:45:16.978Z,686
2015-05-14T03:45:34.871Z,691
2015-05-14T03:45:53.324Z,694
2015-05-14T03:46:11.715Z,699
2015-05-14T03:46:30.499Z,702
2015-05-14T03:46:49.014Z,704
2015-05-14T03:47:07.499Z,704
2015-05-14T03:47:25.923Z,704
2015-05-14T03:47:44.563Z,703
2015-05-14T03:48:02.970Z,704
2015-05-14T03:48:21.641Z,705
2015-05-14T03:48:40.238Z,705
2015-05-14T03:48:58.738Z,706
2015-05-14T03:49:17.363Z,708
2015-05-14T03:49:35.803Z,709
2015-05-14T03:49:54.334Z,711
2015-05-14T03:50:12.818Z,716
2015-05-14T03:50:31.289Z,721
2015-05-14T03:50:49.695Z,721
2015-05-14T03:51:08.180Z,721
2015-05-14T03:51:26.867Z,721
2015-05-14T03:51:45.511Z,720
2015-05-14T03:52:04.183Z,720
2015-05-14T03:52:22.542Z,720
2015-05-14T03:52:40.934Z,720
2015-05-14T03:52:59.715Z,714
2015-05-14T03:53:18.309Z,708
2015-05-14T03:53:36.804Z,701
2015-05-14T03:53:55.398Z,694
2015-05-14T03:54:13.804Z,690
2015-05-14T03:54:32.260Z,685
2015-05-14T03:54:51.057Z,682
2015-05-14T03:55:09.494Z,681
2015-05-14T03:55:28.041Z,682
2015-05-14T03:55:46.560Z,684
2015-05-14T03:56:05.232Z,690
2015-05-14T03:56:23.732Z,698
2015-05-14T03:56:42.284Z,708
2015-05-14T03:57:01.096Z,716
2015-05-14T03:57:19.487Z,719
2015-05-14T03:57:37.927Z,719
2015-05-14T03:57:56.552Z,719
2015-05-14T03:58:15.240Z,719
2015-05-14T03:58:33.849Z,719
2015-05-14T03:58:52.445Z,714
2015-05-14T03:59:11.179Z,712
2015-05-14T03:59:29.679Z,712
2015-05-14T03:59:48.307Z,715
2015-05-14T04:00:06.729Z,718
2015-05-14T04:00:25.307Z,719
2015-05-14T04:00:44.028Z,718
2015-05-14T04:01:02.653Z,718
2015-05-14T04:01:21.122Z,718
2015-05-14T04:01:40.044Z,718
2015-05-14T04:01:58.734Z,718
2015-05-14T04:02:17.375Z,718
2015-05-14T04:02:36.015Z,718
2015-05-14T04:02:54.502Z,718
2015-05-14T04:03:13.189Z,717
2015-05-14T04:03:31.580Z,717
2015-05-14T04:03:50.020Z,717
2015-05-14T04:04:08.505Z,717
2015-05-14T04:04:27.333Z,717
2015-05-14T04:04:45.723Z,717
2015-05-14T04:05:03.554Z,716
2015-05-14T04:05:22.100Z,716
2015-05-14T04:05:40.491Z,716
2015-05-14T04:05:59.003Z,715
2015-05-14T04:06:17.409Z,714
2015-05-14T04:06:35.862Z,714
2015-05-14T04:06:54.348Z,714
2015-05-14T04:07:12.801Z,713
2015-05-14T04:07:31.411Z,714
2015-05-14T04:07:49.879Z,713
2015-05-14T04:08:08.365Z,713
2015-05-14T04:08:26.803Z,713
2015-05-14T04:08:45.412Z,713
2015-05-14T04:09:04.101Z,713
2015-05-14T04:09:22.742Z,713
2015-05-14T04:09:41.148Z,713
2015-05-14T04:09:59.601Z,713
2015-05-14T04:10:18.211Z,712
2015-05-14T04:10:36.836Z,712
2015-05-14T04:10:55.252Z,712
2015-05-14T04:11:13.752Z,712
2015-05-14T04:11:32.346Z,712
2015-05-14T04:11:50.971Z,712
2015-05-14T04:12:09.401Z,712
2015-05-14T04:12:27.979Z,712
2015-05-14T04:12:46.604Z,712
2015-05-14T04:13:05.001Z,711
2015-05-14T04:13:23.642Z,711
2015-05-14T04:13:42.220Z,711
2015-05-14T04:14:00.836Z,711
2015-05-14T04:14:19.618Z,711
2015-05-14T04:14:38.008Z,711
2015-05-14T04:14:56.524Z,711
2015-05-14T04:15:15.218Z,710
2015-05-14T04:15:33.703Z,710
2015-05-14T04:15:52.422Z,710
2015-05-14T04:16:11.037Z,709
2015-05-14T04:16:29.428Z,709
2015-05-14T04:16:48.240Z,709
2015-05-14T04:17:06.869Z,709
2015-05-14T04:17:25.463Z,708
2015-05-14T04:17:43.853Z,707